createdAt,value
2017-09-13T00:00:19.990Z,100097
2017-09-13T00:02:47.025Z,100089
2017-09-13T00:05:13.331Z,100089
2017-09-13T00:07:39.806Z,100087
2017-09-13T00:10:06.797Z,100089
2017-09-13T00:12:34.131Z,100086
2017-09-13T00:15:00.512Z,100078
2017-09-13T00:17:26.754Z,100067
2017-09-13T00:19:53.814Z,100069
2017-09-13T00:22:27.256Z,100059
2017-09-13T00:24:58.137Z,100063
2017-09-13T00:27:26.200Z,100059
2017-09-13T00:29:53.542Z,100051
2017-09-13T00:32:19.909Z,100043
2017-09-13T00:34:51.965Z,100044
2017-09-13T00:37:18.262Z,100043
2017-09-13T00:39:44.630Z,100042
2017-09-13T00:42:11.642Z,100039
2017-09-13T00:44:37.897Z,100034
2017-09-13T00:47:04.894Z,100035
2017-09-13T00:49:31.448Z,100032
2017-09-13T00:51:57.733Z,100025
2017-09-13T00:54:24.071Z,100033
2017-09-13T00:56:50.400Z,100029
2017-09-13T00:59:16.824Z,100026
2017-09-13T01:01:43.126Z,100021
2017-09-13T01:04:10.232Z,100013
2017-09-13T01:06:36.496Z,100009
2017-09-13T01:09:02.949Z,100007
2017-09-13T01:11:32.509Z,100000
2017-09-13T01:13:58.773Z,100000
2017-09-13T01:16:25.762Z,99991
2017-09-13T01:18:52.108Z,99980
2017-09-13T01:21:18.563Z,99985
2017-09-13T01:23:44.879Z,99984
2017-09-13T01:26:11.139Z,99977
2017-09-13T01:28:38.268Z,99976
2017-09-13T01:31:04.588Z,99974
2017-09-13T01:33:30.929Z,99976
2017-09-13T01:35:57.189Z,99972
2017-09-13T01:38:24.250Z,99967
2017-09-13T01:40:50.510Z,99963
2017-09-13T01:43:16.839Z,99954
2017-09-13T01:45:43.227Z,99944
2017-09-13T01:48:10.362Z,99938
2017-09-13T01:50:37.337Z,99933
2017-09-13T01:53:03.659Z,99926
2017-09-13T01:55:29.925Z,99929
2017-09-13T01:57:56.457Z,99921
2017-09-13T02:00:23.131Z,99920
2017-09-13T02:02:49.403Z,99919
2017-09-13T02:05:15.782Z,99909
2017-09-13T02:07:44.429Z,99893
2017-09-13T02:10:10.865Z,99889
2017-09-13T02:12:37.175Z,99884
2017-09-13T02:15:03.548Z,99874
2017-09-13T02:17:29.817Z,99872
2017-09-13T02:19:56.905Z,99862
2017-09-13T02:22:23.190Z,99858
2017-09-13T02:24:50.203Z,99846
2017-09-13T02:27:18.348Z,99838
2017-09-13T02:29:45.386Z,99829
2017-09-13T02:32:15.130Z,99815
2017-09-13T02:34:42.092Z,99808
2017-09-13T02:37:15.756Z,99807
2017-09-13T02:39:42.980Z,99801
2017-09-13T02:42:09.986Z,99796
2017-09-13T02:44:36.554Z,99797
2017-09-13T02:47:03.538Z,99784
2017-09-13T02:49:29.926Z,99782
2017-09-13T02:51:56.923Z,99774
2017-09-13T02:54:23.364Z,99776
2017-09-13T02:56:49.639Z,99773
2017-09-13T02:59:18.026Z,99769
2017-09-13T03:01:47.063Z,99759
2017-09-13T03:04:13.305Z,99756
2017-09-13T03:06:39.613Z,99746
2017-09-13T03:09:05.869Z,99727
2017-09-13T03:11:34.384Z,99723
2017-09-13T03:14:02.631Z,99714
2017-09-13T03:16:29.115Z,99704
2017-09-13T03:18:55.453Z,99707
2017-09-13T03:21:22.995Z,99715
2017-09-13T03:23:49.330Z,99702
2017-09-13T03:26:15.685Z,99700
2017-09-13T03:28:42.106Z,99705
2017-09-13T03:31:08.380Z,99698
2017-09-13T03:33:34.741Z,99696
2017-09-13T03:36:01.765Z,99699
2017-09-13T03:38:32.010Z,99687
2017-09-13T03:40:58.515Z,99677
2017-09-13T03:43:24.842Z,99670
2017-09-13T03:45:51.081Z,99662
2017-09-13T03:48:17.672Z,99648
2017-09-13T03:50:43.988Z,99636
2017-09-13T03:53:11.385Z,99624
2017-09-13T03:55:37.643Z,99627
2017-09-13T03:58:05.714Z,99622
2017-09-13T04:00:33.455Z,99614
2017-09-13T04:02:59.857Z,99616
2017-09-13T04:05:28.057Z,99612
2017-09-13T04:07:55.929Z,99615
2017-09-13T04:10:22.223Z,99614
2017-09-13T04:12:48.536Z,99612
2017-09-13T04:15:14.990Z,99598
2017-09-13T04:17:41.965Z,99592
2017-09-13T04:20:08.479Z,99593
2017-09-13T04:22:35.675Z,99585
2017-09-13T04:25:03.735Z,99572
2017-09-13T04:27:30.892Z,99551
2017-09-13T04:29:57.897Z,99529
2017-09-13T04:32:26.031Z,99525
2017-09-13T04:34:54.434Z,99522
2017-09-13T04:37:22.958Z,99518
2017-09-13T04:39:49.306Z,99507
2017-09-13T04:42:16.408Z,99495
2017-09-13T04:44:42.854Z,99494
2017-09-13T04:47:09.123Z,99490
2017-09-13T04:49:35.474Z,99483
2017-09-13T04:52:01.832Z,99469
2017-09-13T04:54:28.162Z,99462
2017-09-13T04:56:55.247Z,99447
2017-09-13T04:59:22.575Z,99442
2017-09-13T05:01:50.109Z,99431
2017-09-13T05:04:16.436Z,99421
2017-09-13T05:06:43.747Z,99423
2017-09-13T05:11:47.948Z,99399
2017-09-13T05:14:14.264Z,99385
2017-09-13T05:16:40.624Z,99365
2017-09-13T05:19:07.265Z,99356
2017-09-13T05:21:33.546Z,99351
2017-09-13T05:23:59.816Z,99332
2017-09-13T05:26:26.169Z,99324
2017-09-13T05:28:53.203Z,99311
2017-09-13T05:31:19.477Z,99293
2017-09-13T05:33:45.959Z,99285
2017-09-13T05:36:12.971Z,99283
2017-09-13T05:38:39.255Z,99269
2017-09-13T05:41:05.606Z,99255
2017-09-13T05:43:31.874Z,99253
2017-09-13T05:45:58.125Z,99248
2017-09-13T05:48:24.415Z,99239
2017-09-13T05:50:50.688Z,99231
2017-09-13T05:53:16.945Z,99220
2017-09-13T05:55:43.267Z,99218
2017-09-13T05:58:10.275Z,99208
2017-09-13T06:00:36.805Z,99196
2017-09-13T06:03:03.408Z,99184
2017-09-13T06:05:29.967Z,99179
2017-09-13T06:07:56.978Z,99166
2017-09-13T06:10:23.353Z,99147
2017-09-13T06:12:49.587Z,99143
2017-09-13T06:15:15.875Z,99124
2017-09-13T06:17:42.149Z,99129
2017-09-13T06:20:08.385Z,99121
2017-09-13T06:22:34.629Z,99116
2017-09-13T06:25:01.719Z,99107
2017-09-13T06:27:28.009Z,99095
2017-09-13T06:29:54.987Z,99068
2017-09-13T06:32:21.836Z,99066
2017-09-13T06:34:48.393Z,99059
2017-09-13T06:37:14.765Z,99054
2017-09-13T06:39:41.817Z,99046
2017-09-13T06:42:08.134Z,99035
2017-09-13T06:44:35.104Z,99036
2017-09-13T06:47:01.343Z,99018
2017-09-13T06:49:27.831Z,99010
2017-09-13T06:51:54.072Z,98991
2017-09-13T06:54:21.058Z,98991
2017-09-13T06:56:47.401Z,98981
2017-09-13T06:59:13.754Z,98980
2017-09-13T07:01:40.015Z,98971
2017-09-13T07:04:07.012Z,98968
2017-09-13T07:06:33.245Z,98959
2017-09-13T07:08:59.479Z,98957
2017-09-13T07:11:26.039Z,98948
2017-09-13T07:13:52.374Z,98941
2017-09-13T07:16:19.529Z,98942
2017-09-13T07:18:46.598Z,98921
2017-09-13T07:21:12.873Z,98916
2017-09-13T07:23:39.123Z,98907
2017-09-13T07:26:05.865Z,98898
2017-09-13T07:28:32.114Z,98907
2017-09-13T07:30:59.426Z,98904
2017-09-13T07:33:25.668Z,98904
2017-09-13T07:35:51.902Z,98896
2017-09-13T07:38:18.884Z,98874
2017-09-13T07:40:45.151Z,98875
2017-09-13T07:43:11.377Z,98869
2017-09-13T07:45:37.637Z,98851
2017-09-13T07:48:04.698Z,98854
2017-09-13T07:50:30.965Z,98849
2017-09-13T07:52:57.370Z,98840
2017-09-13T07:55:23.769Z,98837
2017-09-13T07:57:50.783Z,98835
2017-09-13T08:00:17.126Z,98834
2017-09-13T08:02:44.230Z,98830
2017-09-13T08:05:10.478Z,98832
2017-09-13T08:07:36.748Z,98830
2017-09-13T08:10:02.987Z,98824
2017-09-13T08:12:30.214Z,98821
2017-09-13T08:14:56.454Z,98813
2017-09-13T08:17:22.693Z,98812
2017-09-13T08:19:48.988Z,98800
2017-09-13T08:22:15.278Z,98806
2017-09-13T08:24:41.543Z,98797
2017-09-13T08:27:07.781Z,98809
2017-09-13T08:29:34.234Z,98808
2017-09-13T08:32:00.469Z,98789
2017-09-13T08:34:26.738Z,98786
2017-09-13T08:36:53.740Z,98781
2017-09-13T08:39:20.110Z,98773
2017-09-13T08:41:47.301Z,98768
2017-09-13T08:44:14.521Z,98771
2017-09-13T08:46:40.750Z,98760
2017-09-13T08:49:06.977Z,98753
2017-09-13T08:51:33.214Z,98761
2017-09-13T08:53:59.659Z,98750
2017-09-13T08:56:25.887Z,98739
2017-09-13T08:58:52.126Z,98734
2017-09-13T09:01:18.386Z,98733
2017-09-13T09:03:45.379Z,98724
2017-09-13T09:06:11.969Z,98715
2017-09-13T09:08:38.261Z,98696
2017-09-13T09:11:04.937Z,98694
2017-09-13T09:13:31.921Z,98707
2017-09-13T09:15:58.183Z,98698
2017-09-13T09:18:24.402Z,98681
2017-09-13T09:20:50.629Z,98692
2017-09-13T09:23:16.870Z,98683
2017-09-13T09:25:43.106Z,98674
2017-09-13T09:28:09.317Z,98679
2017-09-13T09:30:35.571Z,98669
2017-09-13T09:33:02.318Z,98670
2017-09-13T09:35:28.609Z,98661
2017-09-13T09:37:55.050Z,98661
2017-09-13T09:40:21.286Z,98667
2017-09-13T09:42:47.505Z,98653
2017-09-13T09:45:14.619Z,98644
2017-09-13T09:47:40.838Z,98639
2017-09-13T09:50:07.237Z,98650
2017-09-13T09:52:33.470Z,98632
2017-09-13T09:55:00.473Z,98623
2017-09-13T09:57:26.794Z,98613
2017-09-13T09:59:53.183Z,98609
2017-09-13T10:02:20.397Z,98605
2017-09-13T10:04:46.641Z,98610
2017-09-13T10:07:12.878Z,98590
2017-09-13T10:09:39.616Z,98588
2017-09-13T10:12:05.896Z,98594
2017-09-13T10:14:32.306Z,98601
2017-09-13T10:16:58.786Z,98627
2017-09-13T10:19:25.010Z,98609
2017-09-13T10:21:51.241Z,98617
2017-09-13T10:24:17.498Z,98634
2017-09-13T10:26:43.729Z,98629
2017-09-13T10:29:10.710Z,98612
2017-09-13T10:31:36.938Z,98634
2017-09-13T10:34:03.183Z,98634
2017-09-13T10:36:29.438Z,98635
2017-09-13T10:38:55.662Z,98620
2017-09-13T10:41:22.122Z,98606
2017-09-13T10:43:48.362Z,98611
2017-09-13T10:46:15.334Z,98612
2017-09-13T10:48:41.558Z,98593
2017-09-13T10:51:07.815Z,98603
2017-09-13T10:53:34.091Z,98681
2017-09-13T10:56:01.041Z,98637
2017-09-13T10:58:28.117Z,98634
2017-09-13T11:00:54.568Z,98632
2017-09-13T11:03:21.018Z,98651
2017-09-13T11:05:47.275Z,98658
2017-09-13T11:08:14.246Z,98649
2017-09-13T11:10:40.471Z,98643
2017-09-13T11:13:06.721Z,98643
2017-09-13T11:15:32.954Z,98650
2017-09-13T11:17:59.253Z,98634
2017-09-13T11:20:25.581Z,98647
2017-09-13T11:22:52.551Z,98643
2017-09-13T11:25:19.518Z,98655
2017-09-13T11:27:46.590Z,98637
2017-09-13T11:30:12.818Z,98624
2017-09-13T11:32:39.153Z,98627
2017-09-13T11:35:05.448Z,98629
2017-09-13T11:37:31.682Z,98648
2017-09-13T11:39:57.919Z,98632
2017-09-13T11:42:24.182Z,98643
2017-09-13T11:44:51.142Z,98644
2017-09-13T11:47:17.374Z,98656
2017-09-13T11:49:43.950Z,98661
2017-09-13T11:52:10.181Z,98640
2017-09-13T11:54:36.387Z,98655
2017-09-13T11:57:02.655Z,98660
2017-09-13T11:59:28.872Z,98643
2017-09-13T12:01:55.092Z,98643
2017-09-13T12:04:21.305Z,98651
2017-09-13T12:06:47.534Z,98653
2017-09-13T12:09:13.813Z,98645
2017-09-13T12:11:40.793Z,98665
2017-09-13T12:14:07.032Z,98672
2017-09-13T12:16:33.550Z,98651
2017-09-13T12:18:59.777Z,98662
2017-09-13T12:21:26.031Z,98680
2017-09-13T12:23:52.397Z,98720
2017-09-13T12:26:18.624Z,98679
2017-09-13T12:28:44.866Z,98713
2017-09-13T12:31:11.965Z,98717
2017-09-13T12:33:38.182Z,98723
2017-09-13T12:36:04.411Z,98750
2017-09-13T12:38:30.661Z,98751
2017-09-13T12:40:56.993Z,98750
2017-09-13T12:43:23.502Z,98769
2017-09-13T12:45:49.756Z,98767
2017-09-13T12:48:16.044Z,98751
2017-09-13T12:50:42.265Z,98770
2017-09-13T12:53:08.609Z,98757
2017-09-13T12:55:34.886Z,98714
2017-09-13T12:58:01.110Z,98731
2017-09-13T13:00:27.594Z,98736
2017-09-13T13:02:54.054Z,98741
2017-09-13T13:05:20.482Z,98733
2017-09-13T13:07:46.918Z,98746
2017-09-13T13:10:13.146Z,98742
2017-09-13T13:12:39.379Z,98753
2017-09-13T13:15:05.930Z,98740
2017-09-13T13:17:32.354Z,98747
2017-09-13T13:19:58.579Z,98755
2017-09-13T13:22:25.429Z,98727
2017-09-13T13:24:52.395Z,98748
2017-09-13T13:27:18.625Z,98756
2017-09-13T13:29:44.942Z,98711
2017-09-13T13:32:11.153Z,98751
2017-09-13T13:34:37.645Z,98748
2017-09-13T13:37:03.925Z,98739
2017-09-13T13:39:30.246Z,98750
2017-09-13T13:41:56.453Z,98732
2017-09-13T13:44:22.700Z,98737
2017-09-13T13:46:48.935Z,98744
2017-09-13T13:49:15.163Z,98743
2017-09-13T13:51:41.698Z,98749
2017-09-13T13:54:07.932Z,98758
2017-09-13T13:56:34.307Z,98740
2017-09-13T13:59:01.475Z,98770
2017-09-13T14:01:27.707Z,98773
2017-09-13T14:03:53.961Z,98764
2017-09-13T14:06:20.977Z,98767
2017-09-13T14:08:47.214Z,98766
2017-09-13T14:11:13.456Z,98764
2017-09-13T14:13:39.696Z,98788
2017-09-13T14:16:05.948Z,98782
2017-09-13T14:18:32.637Z,98785
2017-09-13T14:20:59.150Z,98769
2017-09-13T14:23:25.380Z,98777
2017-09-13T14:25:51.980Z,98782
2017-09-13T14:28:18.218Z,98784
2017-09-13T14:30:45.182Z,98786
2017-09-13T14:33:12.489Z,98777
2017-09-13T14:35:38.719Z,98785
2017-09-13T14:38:04.941Z,98785
2017-09-13T14:40:31.312Z,98813
2017-09-13T14:42:58.269Z,98798
2017-09-13T14:45:25.254Z,98788
2017-09-13T14:47:51.700Z,98797
2017-09-13T14:50:17.975Z,98795
2017-09-13T14:52:44.957Z,98797
2017-09-13T14:55:11.179Z,98789
2017-09-13T14:57:38.309Z,98764
2017-09-13T15:00:05.436Z,98799
2017-09-13T15:02:32.429Z,98807
2017-09-13T15:04:58.926Z,98824
2017-09-13T15:07:25.902Z,98840
2017-09-13T15:09:52.126Z,98843
2017-09-13T15:12:18.685Z,98845
2017-09-13T15:14:44.910Z,98853
2017-09-13T15:17:11.537Z,98839
2017-09-13T15:19:37.877Z,98864
2017-09-13T15:22:04.097Z,98855
2017-09-13T15:24:30.341Z,98847
2017-09-13T15:26:57.701Z,98845
2017-09-13T15:29:24.385Z,98855
2017-09-13T15:31:50.614Z,98829
2017-09-13T15:34:16.866Z,98862
2017-09-13T15:36:43.080Z,98852
2017-09-13T15:39:09.306Z,98877
2017-09-13T15:41:35.692Z,98864
2017-09-13T15:44:01.965Z,98881
2017-09-13T15:46:28.206Z,98873
2017-09-13T15:48:54.487Z,98886
2017-09-13T15:51:20.720Z,98876
2017-09-13T15:53:47.686Z,98897
2017-09-13T15:56:14.667Z,98875
2017-09-13T15:58:40.913Z,98876
2017-09-13T16:01:07.137Z,98896
2017-09-13T16:03:34.101Z,98913
2017-09-13T16:06:00.314Z,98914
2017-09-13T16:08:26.922Z,98905
2017-09-13T16:10:53.157Z,98907
2017-09-13T16:13:19.387Z,98922
2017-09-13T16:15:45.942Z,98916
2017-09-13T16:18:12.186Z,98904
2017-09-13T16:20:38.408Z,98933
2017-09-13T16:23:04.634Z,98916
2017-09-13T16:25:30.866Z,98940
2017-09-13T16:27:57.398Z,98937
2017-09-13T16:30:23.659Z,98944
2017-09-13T16:32:50.638Z,98956
2017-09-13T16:35:16.903Z,98968
2017-09-13T16:37:43.385Z,98963
2017-09-13T16:40:09.614Z,98963
2017-09-13T16:42:35.877Z,98965
2017-09-13T16:45:02.179Z,98978
2017-09-13T16:47:29.157Z,98960
2017-09-13T16:49:55.418Z,98967
2017-09-13T16:52:22.388Z,98956
2017-09-13T16:54:48.678Z,98950
2017-09-13T16:57:15.202Z,98956
2017-09-13T16:59:41.715Z,98965
2017-09-13T17:02:08.017Z,98968
2017-09-13T17:04:34.793Z,98969
2017-09-13T17:07:01.030Z,98975
2017-09-13T17:09:27.341Z,98972
2017-09-13T17:11:53.861Z,98967
2017-09-13T17:14:20.109Z,98975
2017-09-13T17:16:46.629Z,98988
2017-09-13T17:19:13.221Z,98985
2017-09-13T17:21:40.195Z,98979
2017-09-13T17:24:06.431Z,98987
2017-09-13T17:26:32.695Z,98979
2017-09-13T17:28:58.993Z,98977
2017-09-13T17:31:26.507Z,98980
2017-09-13T17:33:53.518Z,98983
2017-09-13T17:36:20.335Z,98993
2017-09-13T17:38:46.602Z,99013
2017-09-13T17:41:13.355Z,98993
2017-09-13T17:43:39.638Z,98985
2017-09-13T17:46:05.909Z,99005
2017-09-13T17:48:32.450Z,99008
2017-09-13T17:50:59.273Z,99009
2017-09-13T17:53:25.506Z,98998
2017-09-13T17:55:51.749Z,99022
2017-09-13T17:58:18.341Z,99010
2017-09-13T18:00:44.586Z,99024
2017-09-13T18:03:10.859Z,99002
2017-09-13T18:05:37.841Z,99001
2017-09-13T18:08:04.065Z,99022
2017-09-13T18:10:30.646Z,99022
2017-09-13T18:12:57.264Z,99030
2017-09-13T18:15:23.503Z,99034
2017-09-13T18:17:49.943Z,99047
2017-09-13T18:20:16.244Z,99034
2017-09-13T18:22:42.694Z,99026
2017-09-13T18:25:09.230Z,99038
2017-09-13T18:27:35.468Z,99048
2017-09-13T18:30:01.951Z,99029
2017-09-13T18:32:28.174Z,99038
2017-09-13T18:34:54.417Z,99018
2017-09-13T18:37:20.707Z,99048
2017-09-13T18:39:47.759Z,99040
2017-09-13T18:42:15.252Z,99044
2017-09-13T18:44:42.417Z,99035
2017-09-13T18:47:08.649Z,99046
2017-09-13T18:49:34.893Z,99044
2017-09-13T18:52:01.329Z,99054
2017-09-13T18:54:27.571Z,99050
2017-09-13T18:56:54.354Z,99050
2017-09-13T18:59:21.059Z,99063
2017-09-13T19:01:48.026Z,99053
2017-09-13T19:04:14.613Z,99057
2017-09-13T19:06:40.880Z,99059
2017-09-13T19:09:07.880Z,99048
2017-09-13T19:11:34.122Z,99061
2017-09-13T19:14:00.377Z,99051
2017-09-13T19:16:27.360Z,99050
2017-09-13T19:18:53.602Z,99053
2017-09-13T19:21:19.861Z,99054
2017-09-13T19:23:46.378Z,99050
2017-09-13T19:26:12.884Z,99054
2017-09-13T19:28:39.110Z,99046
2017-09-13T19:31:05.398Z,99060
2017-09-13T19:33:31.667Z,99051
2017-09-13T19:35:57.896Z,99057
2017-09-13T19:38:24.145Z,99060
2017-09-13T19:40:50.435Z,99065
2017-09-13T19:43:17.826Z,99072
2017-09-13T19:45:44.106Z,99071
2017-09-13T19:48:11.200Z,99069
2017-09-13T19:50:37.466Z,99061
2017-09-13T19:53:03.698Z,99062
2017-09-13T19:55:30.268Z,99062
2017-09-13T19:57:56.489Z,99070
2017-09-13T20:00:22.722Z,99062
2017-09-13T20:02:48.994Z,99069
2017-09-13T20:05:15.502Z,99060
2017-09-13T20:07:41.730Z,99063
2017-09-13T20:10:08.475Z,99057
2017-09-13T20:12:34.714Z,99067
2017-09-13T20:15:01.174Z,99072
2017-09-13T20:17:27.449Z,99064
2017-09-13T20:19:53.717Z,99063
2017-09-13T20:22:20.162Z,99064
2017-09-13T20:24:46.432Z,99050
2017-09-13T20:27:12.665Z,99065
2017-09-13T20:29:38.898Z,99072
2017-09-13T20:32:05.186Z,99062
2017-09-13T20:34:32.003Z,99070
2017-09-13T20:36:58.273Z,99059
2017-09-13T20:39:25.525Z,99072
2017-09-13T20:41:52.489Z,99062
2017-09-13T20:44:19.129Z,99071
2017-09-13T20:46:45.389Z,99073
2017-09-13T20:49:11.618Z,99069
2017-09-13T20:51:37.877Z,99071
2017-09-13T20:54:04.605Z,99065
2017-09-13T20:56:31.093Z,99073
2017-09-13T20:58:57.422Z,99077
2017-09-13T21:01:23.713Z,99066
2017-09-13T21:03:50.730Z,99080
2017-09-13T21:06:17.198Z,99075
2017-09-13T21:08:45.073Z,99082
2017-09-13T21:11:12.413Z,99081
2017-09-13T21:13:38.670Z,99078
2017-09-13T21:16:05.428Z,99081
2017-09-13T21:18:31.680Z,99083
2017-09-13T21:20:58.833Z,99084
2017-09-13T21:23:25.232Z,99085
2017-09-13T21:25:52.062Z,99085
2017-09-13T21:28:18.416Z,99078
2017-09-13T21:30:44.857Z,99084
2017-09-13T21:33:11.946Z,99085
2017-09-13T21:35:38.245Z,99086
2017-09-13T21:38:04.683Z,99081
2017-09-13T21:40:30.911Z,99080
2017-09-13T21:42:57.388Z,99082
2017-09-13T21:45:24.378Z,99088
2017-09-13T21:47:50.618Z,99085
2017-09-13T21:50:17.206Z,99083
2017-09-13T21:52:44.185Z,99078
2017-09-13T21:55:10.769Z,99077
2017-09-13T21:57:38.101Z,99079
2017-09-13T22:00:04.682Z,99083
2017-09-13T22:02:30.941Z,99080
2017-09-13T22:04:57.221Z,99084
2017-09-13T22:07:24.189Z,99086
2017-09-13T22:09:50.481Z,99082
2017-09-13T22:12:16.900Z,99090
2017-09-13T22:14:43.125Z,99089
2017-09-13T22:17:09.383Z,99087
2017-09-13T22:19:36.373Z,99080
2017-09-13T22:22:02.592Z,99074
2017-09-13T22:24:28.827Z,99091
2017-09-13T22:26:55.102Z,99081
2017-09-13T22:29:21.322Z,99083
2017-09-13T22:31:47.550Z,99084
2017-09-13T22:34:13.800Z,99076
2017-09-13T22:36:40.814Z,99080
2017-09-13T22:39:07.050Z,99074
2017-09-13T22:41:33.301Z,99070
2017-09-13T22:44:00.286Z,99083
2017-09-13T22:46:26.517Z,99067
2017-09-13T22:48:52.770Z,99081
2017-09-13T22:51:19.068Z,99079
2017-09-13T22:53:45.301Z,99081
2017-09-13T22:56:11.554Z,99082
2017-09-13T22:58:37.810Z,99077
2017-09-13T23:01:04.057Z,99090
2017-09-13T23:03:31.030Z,99090
2017-09-13T23:05:57.291Z,99083
2017-09-13T23:08:23.534Z,99083
2017-09-13T23:10:49.772Z,99086
2017-09-13T23:13:16.795Z,99088
2017-09-13T23:15:43.042Z,99088
2017-09-13T23:18:09.273Z,99096
2017-09-13T23:20:36.273Z,99096
2017-09-13T23:23:02.508Z,99089
2017-09-13T23:25:28.731Z,99087
2017-09-13T23:27:54.957Z,99093
2017-09-13T23:30:21.237Z,99088
2017-09-13T23:32:48.213Z,99090
2017-09-13T23:35:14.447Z,99096
2017-09-13T23:37:40.743Z,99097
2017-09-13T23:40:07.710Z,99097
2017-09-13T23:42:33.959Z,99099
2017-09-13T23:45:00.223Z,99101
2017-09-13T23:47:26.471Z,99097
2017-09-13T23:49:53.434Z,99101
2017-09-13T23:52:19.698Z,99099
2017-09-13T23:54:45.929Z,99101
2017-09-13T23:57:12.170Z,99099
2017-09-13T23:59:38.703Z,99108
